sensor_id;sensor_type;location;lat;lon;timestamp;P1;durP1;ratioP1;P2;durP2;ratioP2
54454;SDS011;40364;52.270;10.546;2022-09-12T00:02:24;15.27;;;7.95;;
54454;SDS011;40364;52.270;10.546;2022-09-12T00:04:52;14.27;;;8.38;;
54454;SDS011;40364;52.270;10.546;2022-09-12T00:07:18;18.27;;;8.15;;
54454;SDS011;40364;52.270;10.546;2022-09-12T00:09:45;18.42;;;8.90;;
54454;SDS011;40364;52.270;10.546;2022-09-12T00:12:11;16.42;;;8.63;;
54454;SDS011;40364;52.270;10.546;2022-09-12T00:14:38;13.82;;;8.15;;
54454;SDS011;40364;52.270;10.546;2022-09-12T00:17:04;13.10;;;8.63;;
54454;SDS011;40364;52.270;10.546;2022-09-12T00:19:30;19.63;;;8.88;;
54454;SDS011;40364;52.270;10.546;2022-09-12T00:21:58;18.20;;;8.82;;
54454;SDS011;40364;52.270;10.546;2022-09-12T00:24:25;16.17;;;8.77;;
54454;SDS011;40364;52.270;10.546;2022-09-12T00:26:51;16.60;;;8.65;;
54454;SDS011;40364;52.270;10.546;2022-09-12T00:29:19;14.20;;;8.55;;
54454;SDS011;40364;52.270;10.546;2022-09-12T00:31:46;13.82;;;8.63;;
54454;SDS011;40364;52.270;10.546;2022-09-12T00:34:12;14.38;;;7.78;;
54454;SDS011;40364;52.270;10.546;2022-09-12T00:36:39;12.90;;;8.25;;
54454;SDS011;40364;52.270;10.546;2022-09-12T00:39:07;15.45;;;8.93;;
54454;SDS011;40364;52.270;10.546;2022-09-12T00:41:34;13.90;;;7.88;;
54454;SDS011;40364;52.270;10.546;2022-09-12T00:44:02;19.38;;;9.10;;
54454;SDS011;40364;52.270;10.546;2022-09-12T00:46:34;18.65;;;8.30;;
54454;SDS011;40364;52.270;10.546;2022-09-12T00:49:05;14.15;;;7.93;;
54454;SDS011;40364;52.270;10.546;2022-09-12T00:51:33;14.65;;;7.65;;
54454;SDS011;40364;52.270;10.546;2022-09-12T00:54:02;15.55;;;8.40;;
54454;SDS011;40364;52.270;10.546;2022-09-12T00:56:32;15.38;;;8.38;;
54454;SDS011;40364;52.270;10.546;2022-09-12T00:58:59;14.32;;;8.48;;
54454;SDS011;40364;52.270;10.546;2022-09-12T01:01:27;16.63;;;9.38;;
54454;SDS011;40364;52.270;10.546;2022-09-12T01:03:54;17.30;;;8.95;;
54454;SDS011;40364;52.270;10.546;2022-09-12T01:06:21;14.70;;;8.15;;
54454;SDS011;40364;52.270;10.546;2022-09-12T01:08:50;16.13;;;8.63;;
54454;SDS011;40364;52.270;10.546;2022-09-12T01:11:17;16.60;;;8.40;;
54454;SDS011;40364;52.270;10.546;2022-09-12T01:13:46;13.60;;;8.23;;
54454;SDS011;40364;52.270;10.546;2022-09-12T01:16:13;13.23;;;7.50;;
54454;SDS011;40364;52.270;10.546;2022-09-12T01:18:45;14.50;;;8.13;;
54454;SDS011;40364;52.270;10.546;2022-09-12T01:21:13;15.52;;;8.77;;
54454;SDS011;40364;52.270;10.546;2022-09-12T01:29:28;15.00;;;7.68;;
54454;SDS011;40364;52.270;10.546;2022-09-12T01:32:00;17.13;;;8.98;;
54454;SDS011;40364;52.270;10.546;2022-09-12T01:34:29;14.18;;;9.00;;
54454;SDS011;40364;52.270;10.546;2022-09-12T01:36:59;13.68;;;8.50;;
54454;SDS011;40364;52.270;10.546;2022-09-12T01:39:32;15.13;;;8.48;;
54454;SDS011;40364;52.270;10.546;2022-09-12T01:42:07;14.68;;;8.27;;
54454;SDS011;40364;52.270;10.546;2022-09-12T01:44:38;15.85;;;8.88;;
54454;SDS011;40364;52.270;10.546;2022-09-12T01:47:07;15.48;;;8.27;;
54454;SDS011;40364;52.270;10.546;2022-09-12T01:49:36;15.90;;;8.23;;
54454;SDS011;40364;52.270;10.546;2022-09-12T01:52:06;13.90;;;8.07;;
54454;SDS011;40364;52.270;10.546;2022-09-12T01:54:37;13.57;;;8.13;;
54454;SDS011;40364;52.270;10.546;2022-09-12T01:57:06;13.65;;;7.63;;
54454;SDS011;40364;52.270;10.546;2022-09-12T01:59:37;13.93;;;8.52;;
54454;SDS011;40364;52.270;10.546;2022-09-12T02:02:05;16.33;;;8.75;;
54454;SDS011;40364;52.270;10.546;2022-09-12T02:04:35;14.63;;;7.55;;
54454;SDS011;40364;52.270;10.546;2022-09-12T02:07:05;19.55;;;8.63;;
54454;SDS011;40364;52.270;10.546;2022-09-12T02:09:34;17.45;;;8.45;;
54454;SDS011;40364;52.270;10.546;2022-09-12T02:12:01;13.57;;;7.97;;
54454;SDS011;40364;52.270;10.546;2022-09-12T02:14:29;16.27;;;9.10;;
54454;SDS011;40364;52.270;10.546;2022-09-12T02:16:57;15.63;;;8.43;;
54454;SDS011;40364;52.270;10.546;2022-09-12T02:19:26;16.42;;;8.45;;
54454;SDS011;40364;52.270;10.546;2022-09-12T02:21:57;14.98;;;7.85;;
54454;SDS011;40364;52.270;10.546;2022-09-12T02:24:26;14.82;;;8.10;;
54454;SDS011;40364;52.270;10.546;2022-09-12T02:26:54;15.80;;;8.20;;
54454;SDS011;40364;52.270;10.546;2022-09-12T02:29:23;14.07;;;7.85;;
54454;SDS011;40364;52.270;10.546;2022-09-12T02:31:51;15.23;;;8.45;;
54454;SDS011;40364;52.270;10.546;2022-09-12T02:34:26;18.33;;;8.95;;
54454;SDS011;40364;52.270;10.546;2022-09-12T02:37:00;18.10;;;8.18;;
54454;SDS011;40364;52.270;10.546;2022-09-12T02:39:29;13.73;;;8.02;;
54454;SDS011;40364;52.270;10.546;2022-09-12T02:41:55;17.45;;;8.63;;
54454;SDS011;40364;52.270;10.546;2022-09-12T02:44:23;15.13;;;8.10;;
54454;SDS011;40364;52.270;10.546;2022-09-12T02:46:51;16.98;;;9.10;;
54454;SDS011;40364;52.270;10.546;2022-09-12T02:49:18;16.65;;;8.18;;
54454;SDS011;40364;52.270;10.546;2022-09-12T02:51:45;17.40;;;8.45;;
54454;SDS011;40364;52.270;10.546;2022-09-12T02:54:14;12.77;;;8.18;;
54454;SDS011;40364;52.270;10.546;2022-09-12T02:56:42;13.40;;;8.57;;
54454;SDS011;40364;52.270;10.546;2022-09-12T02:59:10;17.55;;;8.63;;
54454;SDS011;40364;52.270;10.546;2022-09-12T03:01:42;14.98;;;8.68;;
54454;SDS011;40364;52.270;10.546;2022-09-12T03:04:18;16.77;;;8.52;;
54454;SDS011;40364;52.270;10.546;2022-09-12T03:06:50;15.93;;;8.95;;
54454;SDS011;40364;52.270;10.546;2022-09-12T03:09:22;14.65;;;8.95;;
54454;SDS011;40364;52.270;10.546;2022-09-12T03:12:00;14.43;;;9.57;;
54454;SDS011;40364;52.270;10.546;2022-09-12T03:14:35;19.25;;;9.85;;
54454;SDS011;40364;52.270;10.546;2022-09-12T03:17:10;16.38;;;9.20;;
54454;SDS011;40364;52.270;10.546;2022-09-12T03:19:41;18.30;;;9.65;;
54454;SDS011;40364;52.270;10.546;2022-09-12T03:22:14;21.92;;;10.65;;
54454;SDS011;40364;52.270;10.546;2022-09-12T03:24:44;18.55;;;10.70;;
54454;SDS011;40364;52.270;10.546;2022-09-12T03:27:15;15.57;;;9.25;;
54454;SDS011;40364;52.270;10.546;2022-09-12T03:29:42;20.55;;;9.98;;
54454;SDS011;40364;52.270;10.546;2022-09-12T03:32:08;15.45;;;9.52;;
54454;SDS011;40364;52.270;10.546;2022-09-12T03:34:35;19.55;;;10.45;;
54454;SDS011;40364;52.270;10.546;2022-09-12T03:37:01;18.25;;;10.13;;
54454;SDS011;40364;52.270;10.546;2022-09-12T03:39:28;16.75;;;9.80;;
54454;SDS011;40364;52.270;10.546;2022-09-12T03:41:56;15.65;;;8.93;;
54454;SDS011;40364;52.270;10.546;2022-09-12T03:44:23;16.95;;;9.05;;
54454;SDS011;40364;52.270;10.546;2022-09-12T03:46:49;18.10;;;10.02;;
54454;SDS011;40364;52.270;10.546;2022-09-12T03:49:16;16.38;;;9.05;;
54454;SDS011;40364;52.270;10.546;2022-09-12T03:51:42;15.82;;;9.07;;
54454;SDS011;40364;52.270;10.546;2022-09-12T03:54:09;16.05;;;9.13;;
54454;SDS011;40364;52.270;10.546;2022-09-12T03:56:36;17.58;;;9.43;;
54454;SDS011;40364;52.270;10.546;2022-09-12T03:59:05;17.15;;;10.25;;
54454;SDS011;40364;52.270;10.546;2022-09-12T04:01:31;13.50;;;8.48;;
54454;SDS011;40364;52.270;10.546;2022-09-12T04:03:58;15.38;;;8.75;;
54454;SDS011;40364;52.270;10.546;2022-09-12T04:06:24;16.60;;;9.00;;
54454;SDS011;40364;52.270;10.546;2022-09-12T04:08:51;16.95;;;8.95;;
54454;SDS011;40364;52.270;10.546;2022-09-12T04:11:19;19.85;;;9.43;;
54454;SDS011;40364;52.270;10.546;2022-09-12T04:13:45;16.70;;;9.57;;
54454;SDS011;40364;52.270;10.546;2022-09-12T04:16:14;16.02;;;9.30;;
54454;SDS011;40364;52.270;10.546;2022-09-12T04:18:41;14.18;;;8.80;;
54454;SDS011;40364;52.270;10.546;2022-09-12T04:21:08;16.85;;;8.77;;
54454;SDS011;40364;52.270;10.546;2022-09-12T04:23:36;17.45;;;9.35;;
54454;SDS011;40364;52.270;10.546;2022-09-12T04:26:03;14.88;;;9.20;;
54454;SDS011;40364;52.270;10.546;2022-09-12T04:28:31;16.80;;;8.27;;
54454;SDS011;40364;52.270;10.546;2022-09-12T04:31:00;16.10;;;8.55;;
54454;SDS011;40364;52.270;10.546;2022-09-12T04:33:28;18.50;;;9.55;;
54454;SDS011;40364;52.270;10.546;2022-09-12T04:35:54;19.20;;;8.88;;
54454;SDS011;40364;52.270;10.546;2022-09-12T04:38:21;17.20;;;10.23;;
54454;SDS011;40364;52.270;10.546;2022-09-12T04:40:47;15.02;;;8.85;;
54454;SDS011;40364;52.270;10.546;2022-09-12T04:43:13;17.70;;;10.13;;
54454;SDS011;40364;52.270;10.546;2022-09-12T04:45:40;17.40;;;9.23;;
54454;SDS011;40364;52.270;10.546;2022-09-12T04:48:10;18.02;;;9.18;;
54454;SDS011;40364;52.270;10.546;2022-09-12T04:50:38;17.80;;;9.02;;
54454;SDS011;40364;52.270;10.546;2022-09-12T04:53:04;14.00;;;9.10;;
54454;SDS011;40364;52.270;10.546;2022-09-12T04:55:32;17.92;;;9.75;;
54454;SDS011;40364;52.270;10.546;2022-09-12T04:57:59;16.45;;;10.05;;
54454;SDS011;40364;52.270;10.546;2022-09-12T05:00:26;17.48;;;9.15;;
54454;SDS011;40364;52.270;10.546;2022-09-12T05:02:53;20.40;;;10.10;;
54454;SDS011;40364;52.270;10.546;2022-09-12T05:05:19;18.83;;;9.27;;
54454;SDS011;40364;52.270;10.546;2022-09-12T05:07:47;18.50;;;9.05;;
54454;SDS011;40364;52.270;10.546;2022-09-12T05:10:13;17.50;;;9.80;;
54454;SDS011;40364;52.270;10.546;2022-09-12T05:12:40;16.42;;;10.02;;
54454;SDS011;40364;52.270;10.546;2022-09-12T05:15:07;17.52;;;10.20;;
54454;SDS011;40364;52.270;10.546;2022-09-12T05:17:34;17.88;;;9.88;;
54454;SDS011;40364;52.270;10.546;2022-09-12T05:20:00;17.05;;;9.48;;
54454;SDS011;40364;52.270;10.546;2022-09-12T05:22:27;17.20;;;9.02;;
54454;SDS011;40364;52.270;10.546;2022-09-12T05:24:54;18.95;;;8.98;;
54454;SDS011;40364;52.270;10.546;2022-09-12T05:27:21;20.10;;;9.52;;
54454;SDS011;40364;52.270;10.546;2022-09-12T05:29:47;16.80;;;10.52;;
54454;SDS011;40364;52.270;10.546;2022-09-12T05:32:14;18.27;;;9.95;;
54454;SDS011;40364;52.270;10.546;2022-09-12T05:34:40;15.95;;;9.75;;
54454;SDS011;40364;52.270;10.546;2022-09-12T05:37:07;20.63;;;10.88;;
54454;SDS011;40364;52.270;10.546;2022-09-12T05:39:33;15.43;;;9.38;;
54454;SDS011;40364;52.270;10.546;2022-09-12T05:42:01;19.45;;;9.82;;
54454;SDS011;40364;52.270;10.546;2022-09-12T05:44:28;16.60;;;8.95;;
54454;SDS011;40364;52.270;10.546;2022-09-12T05:46:54;20.77;;;10.00;;
54454;SDS011;40364;52.270;10.546;2022-09-12T05:49:20;21.00;;;8.98;;
54454;SDS011;40364;52.270;10.546;2022-09-12T05:51:47;14.60;;;8.98;;
54454;SDS011;40364;52.270;10.546;2022-09-12T05:54:15;15.82;;;10.05;;
54454;SDS011;40364;52.270;10.546;2022-09-12T05:56:43;21.95;;;9.77;;
54454;SDS011;40364;52.270;10.546;2022-09-12T05:59:12;17.83;;;9.88;;
54454;SDS011;40364;52.270;10.546;2022-09-12T06:01:38;18.65;;;9.98;;
54454;SDS011;40364;52.270;10.546;2022-09-12T06:04:05;17.70;;;9.32;;
54454;SDS011;40364;52.270;10.546;2022-09-12T06:06:34;17.33;;;9.68;;
54454;SDS011;40364;52.270;10.546;2022-09-12T06:09:02;16.52;;;9.95;;
54454;SDS011;40364;52.270;10.546;2022-09-12T06:11:29;14.82;;;9.13;;
54454;SDS011;40364;52.270;10.546;2022-09-12T06:13:57;16.95;;;9.80;;
54454;SDS011;40364;52.270;10.546;2022-09-12T06:16:25;20.95;;;11.52;;
54454;SDS011;40364;52.270;10.546;2022-09-12T06:18:52;16.90;;;10.32;;
54454;SDS011;40364;52.270;10.546;2022-09-12T06:21:20;17.05;;;9.88;;
54454;SDS011;40364;52.270;10.546;2022-09-12T06:23:47;19.13;;;10.85;;
54454;SDS011;40364;52.270;10.546;2022-09-12T06:26:14;23.33;;;11.15;;
54454;SDS011;40364;52.270;10.546;2022-09-12T06:28:42;15.60;;;8.90;;
54454;SDS011;40364;52.270;10.546;2022-09-12T06:31:09;16.13;;;9.45;;
54454;SDS011;40364;52.270;10.546;2022-09-12T06:33:38;21.55;;;10.13;;
54454;SDS011;40364;52.270;10.546;2022-09-12T06:36:08;16.40;;;10.15;;
54454;SDS011;40364;52.270;10.546;2022-09-12T06:38:36;16.98;;;10.38;;
54454;SDS011;40364;52.270;10.546;2022-09-12T06:41:02;16.05;;;9.20;;
54454;SDS011;40364;52.270;10.546;2022-09-12T06:43:29;18.38;;;9.65;;
54454;SDS011;40364;52.270;10.546;2022-09-12T06:45:56;17.60;;;10.20;;
54454;SDS011;40364;52.270;10.546;2022-09-12T06:48:23;15.90;;;10.10;;
54454;SDS011;40364;52.270;10.546;2022-09-12T06:50:57;20.88;;;9.50;;
54454;SDS011;40364;52.270;10.546;2022-09-12T06:53:24;15.15;;;8.60;;
54454;SDS011;40364;52.270;10.546;2022-09-12T06:55:54;14.90;;;8.35;;
54454;SDS011;40364;52.270;10.546;2022-09-12T06:58:20;15.80;;;8.77;;
54454;SDS011;40364;52.270;10.546;2022-09-12T07:00:47;13.95;;;8.65;;
54454;SDS011;40364;52.270;10.546;2022-09-12T07:03:13;15.38;;;8.55;;
54454;SDS011;40364;52.270;10.546;2022-09-12T07:05:40;20.00;;;9.75;;
54454;SDS011;40364;52.270;10.546;2022-09-12T07:08:08;15.32;;;9.50;;
54454;SDS011;40364;52.270;10.546;2022-09-12T07:10:34;15.55;;;9.48;;
54454;SDS011;40364;52.270;10.546;2022-09-12T07:13:00;16.55;;;8.93;;
54454;SDS011;40364;52.270;10.546;2022-09-12T07:15:27;18.80;;;9.07;;
54454;SDS011;40364;52.270;10.546;2022-09-12T07:17:53;16.70;;;9.82;;
54454;SDS011;40364;52.270;10.546;2022-09-12T07:20:20;16.42;;;9.73;;
54454;SDS011;40364;52.270;10.546;2022-09-12T07:22:47;14.48;;;8.80;;
54454;SDS011;40364;52.270;10.546;2022-09-12T07:25:15;17.27;;;8.82;;
54454;SDS011;40364;52.270;10.546;2022-09-12T07:27:41;18.48;;;9.45;;
54454;SDS011;40364;52.270;10.546;2022-09-12T07:30:08;16.58;;;8.65;;
54454;SDS011;40364;52.270;10.546;2022-09-12T07:32:34;20.77;;;9.52;;
54454;SDS011;40364;52.270;10.546;2022-09-12T07:35:01;16.08;;;8.57;;
54454;SDS011;40364;52.270;10.546;2022-09-12T07:37:28;18.27;;;8.82;;
54454;SDS011;40364;52.270;10.546;2022-09-12T07:39:55;17.73;;;8.95;;
54454;SDS011;40364;52.270;10.546;2022-09-12T07:42:22;20.30;;;10.00;;
54454;SDS011;40364;52.270;10.546;2022-09-12T07:44:49;22.52;;;8.80;;
54454;SDS011;40364;52.270;10.546;2022-09-12T07:47:16;11.52;;;7.53;;
54454;SDS011;40364;52.270;10.546;2022-09-12T07:49:43;15.48;;;8.93;;
54454;SDS011;40364;52.270;10.546;2022-09-12T07:52:09;15.88;;;8.70;;
54454;SDS011;40364;52.270;10.546;2022-09-12T07:54:35;18.58;;;9.38;;
54454;SDS011;40364;52.270;10.546;2022-09-12T07:57:02;15.75;;;8.27;;
54454;SDS011;40364;52.270;10.546;2022-09-12T07:59:30;14.43;;;7.72;;
54454;SDS011;40364;52.270;10.546;2022-09-12T08:01:57;15.90;;;8.75;;
54454;SDS011;40364;52.270;10.546;2022-09-12T08:04:23;13.90;;;7.97;;
54454;SDS011;40364;52.270;10.546;2022-09-12T08:06:50;16.08;;;8.88;;
54454;SDS011;40364;52.270;10.546;2022-09-12T08:09:16;15.45;;;8.75;;
54454;SDS011;40364;52.270;10.546;2022-09-12T08:11:42;12.10;;;7.45;;
54454;SDS011;40364;52.270;10.546;2022-09-12T08:14:09;12.23;;;7.20;;
54454;SDS011;40364;52.270;10.546;2022-09-12T08:16:37;16.98;;;7.82;;
54454;SDS011;40364;52.270;10.546;2022-09-12T08:19:03;13.60;;;8.30;;
54454;SDS011;40364;52.270;10.546;2022-09-12T08:21:30;13.68;;;7.28;;
54454;SDS011;40364;52.270;10.546;2022-09-12T08:23:58;12.65;;;7.63;;
54454;SDS011;40364;52.270;10.546;2022-09-12T08:26:25;13.75;;;8.35;;
54454;SDS011;40364;52.270;10.546;2022-09-12T08:28:51;11.27;;;7.38;;
54454;SDS011;40364;52.270;10.546;2022-09-12T08:31:19;16.33;;;7.45;;
54454;SDS011;40364;52.270;10.546;2022-09-12T08:33:47;13.55;;;8.23;;
54454;SDS011;40364;52.270;10.546;2022-09-12T08:36:14;15.45;;;7.50;;
54454;SDS011;40364;52.270;10.546;2022-09-12T08:38:42;14.82;;;8.38;;
54454;SDS011;40364;52.270;10.546;2022-09-12T08:41:10;12.77;;;8.20;;
54454;SDS011;40364;52.270;10.546;2022-09-12T08:43:42;14.38;;;7.80;;
54454;SDS011;40364;52.270;10.546;2022-09-12T08:46:13;15.27;;;7.40;;
54454;SDS011;40364;52.270;10.546;2022-09-12T08:48:42;14.52;;;7.70;;
54454;SDS011;40364;52.270;10.546;2022-09-12T08:51:12;13.43;;;7.85;;
54454;SDS011;40364;52.270;10.546;2022-09-12T08:53:40;16.40;;;7.47;;
54454;SDS011;40364;52.270;10.546;2022-09-12T08:56:08;11.25;;;7.68;;
54454;SDS011;40364;52.270;10.546;2022-09-12T08:58:36;12.23;;;6.07;;
54454;SDS011;40364;52.270;10.546;2022-09-12T09:01:05;12.05;;;8.05;;
54454;SDS011;40364;52.270;10.546;2022-09-12T09:06:33;12.48;;;6.78;;
54454;SDS011;40364;52.270;10.546;2022-09-12T09:09:03;9.43;;;6.32;;
54454;SDS011;40364;52.270;10.546;2022-09-12T09:11:33;11.88;;;7.15;;
54454;SDS011;40364;52.270;10.546;2022-09-12T09:14:05;12.50;;;6.82;;
54454;SDS011;40364;52.270;10.546;2022-09-12T09:16:53;11.02;;;6.50;;
54454;SDS011;40364;52.270;10.546;2022-09-12T09:19:22;12.07;;;6.22;;
54454;SDS011;40364;52.270;10.546;2022-09-12T09:21:53;13.77;;;6.47;;
54454;SDS011;40364;52.270;10.546;2022-09-12T09:24:24;13.00;;;7.45;;
54454;SDS011;40364;52.270;10.546;2022-09-12T09:26:52;10.73;;;6.30;;
54454;SDS011;40364;52.270;10.546;2022-09-12T09:29:21;11.02;;;5.57;;
54454;SDS011;40364;52.270;10.546;2022-09-12T09:31:51;11.27;;;6.45;;
54454;SDS011;40364;52.270;10.546;2022-09-12T09:34:18;11.93;;;6.95;;
54454;SDS011;40364;52.270;10.546;2022-09-12T09:36:49;10.25;;;5.63;;
54454;SDS011;40364;52.270;10.546;2022-09-12T09:39:21;10.98;;;6.22;;
54454;SDS011;40364;52.270;10.546;2022-09-12T09:41:52;10.15;;;6.88;;
54454;SDS011;40364;52.270;10.546;2022-09-12T09:44:25;9.00;;;5.75;;
54454;SDS011;40364;52.270;10.546;2022-09-12T09:46:54;10.02;;;6.25;;
54454;SDS011;40364;52.270;10.546;2022-09-12T09:49:21;9.50;;;6.07;;
54454;SDS011;40364;52.270;10.546;2022-09-12T09:51:47;10.07;;;6.22;;
54454;SDS011;40364;52.270;10.546;2022-09-12T09:54:16;9.05;;;5.68;;
54454;SDS011;40364;52.270;10.546;2022-09-12T09:56:45;12.20;;;6.07;;
54454;SDS011;40364;52.270;10.546;2022-09-12T09:59:14;7.05;;;4.70;;
54454;SDS011;40364;52.270;10.546;2022-09-12T10:01:44;9.55;;;5.25;;
54454;SDS011;40364;52.270;10.546;2022-09-12T10:04:16;8.95;;;5.32;;
54454;SDS011;40364;52.270;10.546;2022-09-12T10:06:43;11.02;;;5.07;;
54454;SDS011;40364;52.270;10.546;2022-09-12T10:09:17;7.82;;;4.25;;
54454;SDS011;40364;52.270;10.546;2022-09-12T10:11:45;11.15;;;4.25;;
54454;SDS011;40364;52.270;10.546;2022-09-12T10:14:26;5.65;;;3.22;;
54454;SDS011;40364;52.270;10.546;2022-09-12T10:16:53;5.78;;;3.47;;
54454;SDS011;40364;52.270;10.546;2022-09-12T10:19:22;6.93;;;4.05;;
54454;SDS011;40364;52.270;10.546;2022-09-12T10:21:49;6.18;;;3.47;;
54454;SDS011;40364;52.270;10.546;2022-09-12T10:24:19;6.47;;;4.70;;
54454;SDS011;40364;52.270;10.546;2022-09-12T10:26:48;6.85;;;4.00;;
54454;SDS011;40364;52.270;10.546;2022-09-12T10:29:16;7.45;;;3.78;;
54454;SDS011;40364;52.270;10.546;2022-09-12T10:31:46;5.22;;;3.67;;
54454;SDS011;40364;52.270;10.546;2022-09-12T10:34:19;7.32;;;3.97;;
54454;SDS011;40364;52.270;10.546;2022-09-12T10:36:46;8.90;;;4.53;;
54454;SDS011;40364;52.270;10.546;2022-09-12T10:39:15;6.22;;;3.95;;
54454;SDS011;40364;52.270;10.546;2022-09-12T10:41:43;5.75;;;4.00;;
54454;SDS011;40364;52.270;10.546;2022-09-12T10:44:13;6.13;;;3.42;;
54454;SDS011;40364;52.270;10.546;2022-09-12T10:46:40;3.85;;;2.50;;
54454;SDS011;40364;52.270;10.546;2022-09-12T10:49:21;4.07;;;2.50;;
54454;SDS011;40364;52.270;10.546;2022-09-12T10:51:48;3.65;;;2.65;;
54454;SDS011;40364;52.270;10.546;2022-09-12T10:54:15;4.07;;;2.50;;
54454;SDS011;40364;52.270;10.546;2022-09-12T10:56:43;7.75;;;2.95;;
54454;SDS011;40364;52.270;10.546;2022-09-12T10:59:18;5.15;;;3.35;;
54454;SDS011;40364;52.270;10.546;2022-09-12T11:01:48;5.03;;;3.20;;
54454;SDS011;40364;52.270;10.546;2022-09-12T11:04:29;6.25;;;3.38;;
54454;SDS011;40364;52.270;10.546;2022-09-12T11:07:09;5.32;;;3.10;;
54454;SDS011;40364;52.270;10.546;2022-09-12T11:09:41;4.90;;;3.10;;
54454;SDS011;40364;52.270;10.546;2022-09-12T11:12:11;4.88;;;3.03;;
54454;SDS011;40364;52.270;10.546;2022-09-12T11:14:47;6.80;;;3.53;;
54454;SDS011;40364;52.270;10.546;2022-09-12T11:19:52;14.15;;;4.38;;
54454;SDS011;40364;52.270;10.546;2022-09-12T11:22:26;5.35;;;3.30;;
54454;SDS011;40364;52.270;10.546;2022-09-12T11:25:03;4.30;;;3.33;;
54454;SDS011;40364;52.270;10.546;2022-09-12T11:30:01;5.85;;;3.80;;
54454;SDS011;40364;52.270;10.546;2022-09-12T11:35:16;4.43;;;2.85;;
54454;SDS011;40364;52.270;10.546;2022-09-12T11:37:50;6.32;;;3.42;;
54454;SDS011;40364;52.270;10.546;2022-09-12T11:40:22;4.38;;;3.40;;
54454;SDS011;40364;52.270;10.546;2022-09-12T11:42:53;5.65;;;2.92;;
54454;SDS011;40364;52.270;10.546;2022-09-12T11:45:22;6.53;;;2.97;;
54454;SDS011;40364;52.270;10.546;2022-09-12T11:47:51;4.95;;;3.00;;
54454;SDS011;40364;52.270;10.546;2022-09-12T11:50:20;3.42;;;2.78;;
54454;SDS011;40364;52.270;10.546;2022-09-12T11:52:50;4.43;;;3.10;;
54454;SDS011;40364;52.270;10.546;2022-09-12T11:55:18;7.50;;;3.85;;
54454;SDS011;40364;52.270;10.546;2022-09-12T11:57:48;5.90;;;3.38;;
54454;SDS011;40364;52.270;10.546;2022-09-12T12:00:16;5.22;;;2.80;;
54454;SDS011;40364;52.270;10.546;2022-09-12T12:02:49;5.35;;;3.58;;
54454;SDS011;40364;52.270;10.546;2022-09-12T12:05:21;9.40;;;2.92;;
54454;SDS011;40364;52.270;10.546;2022-09-12T12:07:51;5.78;;;3.17;;
54454;SDS011;40364;52.270;10.546;2022-09-12T12:10:22;6.38;;;3.05;;
54454;SDS011;40364;52.270;10.546;2022-09-12T12:12:50;9.05;;;3.88;;
54454;SDS011;40364;52.270;10.546;2022-09-12T12:15:18;5.63;;;3.28;;
54454;SDS011;40364;52.270;10.546;2022-09-12T12:17:45;5.28;;;2.80;;
54454;SDS011;40364;52.270;10.546;2022-09-12T12:20:26;6.85;;;3.08;;
54454;SDS011;40364;52.270;10.546;2022-09-12T12:22:53;5.80;;;2.53;;
54454;SDS011;40364;52.270;10.546;2022-09-12T12:25:24;5.72;;;2.72;;
54454;SDS011;40364;52.270;10.546;2022-09-12T12:27:52;9.45;;;2.80;;
54454;SDS011;40364;52.270;10.546;2022-09-12T12:33:05;5.53;;;2.42;;
54454;SDS011;40364;52.270;10.546;2022-09-12T12:43:51;5.78;;;2.40;;
54454;SDS011;40364;52.270;10.546;2022-09-12T12:46:18;3.58;;;1.90;;
54454;SDS011;40364;52.270;10.546;2022-09-12T12:49:04;2.80;;;2.00;;
54454;SDS011;40364;52.270;10.546;2022-09-12T12:51:36;3.45;;;2.00;;
54454;SDS011;40364;52.270;10.546;2022-09-12T12:54:04;3.20;;;1.80;;
54454;SDS011;40364;52.270;10.546;2022-09-12T12:56:37;3.15;;;1.90;;
54454;SDS011;40364;52.270;10.546;2022-09-12T12:59:12;4.50;;;1.90;;
54454;SDS011;40364;52.270;10.546;2022-09-12T13:01:43;4.20;;;1.75;;
54454;SDS011;40364;52.270;10.546;2022-09-12T13:04:11;2.55;;;1.80;;
54454;SDS011;40364;52.270;10.546;2022-09-12T13:06:39;1.88;;;1.60;;
54454;SDS011;40364;52.270;10.546;2022-09-12T13:09:07;2.10;;;1.77;;
54454;SDS011;40364;52.270;10.546;2022-09-12T13:11:35;5.00;;;1.77;;
54454;SDS011;40364;52.270;10.546;2022-09-12T13:14:03;3.15;;;1.58;;
54454;SDS011;40364;52.270;10.546;2022-09-12T13:16:33;4.07;;;1.60;;
54454;SDS011;40364;52.270;10.546;2022-09-12T13:19:01;3.05;;;1.67;;
54454;SDS011;40364;52.270;10.546;2022-09-12T13:21:29;4.72;;;2.03;;
54454;SDS011;40364;52.270;10.546;2022-09-12T13:23:58;2.03;;;1.50;;
54454;SDS011;40364;52.270;10.546;2022-09-12T13:26:26;4.28;;;1.60;;
54454;SDS011;40364;52.270;10.546;2022-09-12T13:29:07;3.25;;;1.70;;
54454;SDS011;40364;52.270;10.546;2022-09-12T13:31:35;2.42;;;1.40;;
54454;SDS011;40364;52.270;10.546;2022-09-12T13:34:03;2.65;;;1.38;;
54454;SDS011;40364;52.270;10.546;2022-09-12T13:36:37;1.65;;;1.27;;
54454;SDS011;40364;52.270;10.546;2022-09-12T13:39:13;2.75;;;1.40;;
54454;SDS011;40364;52.270;10.546;2022-09-12T13:41:53;4.20;;;1.63;;
54454;SDS011;40364;52.270;10.546;2022-09-12T13:44:23;2.83;;;1.40;;
54454;SDS011;40364;52.270;10.546;2022-09-12T13:46:52;4.22;;;1.58;;
54454;SDS011;40364;52.270;10.546;2022-09-12T13:49:29;9.52;;;1.60;;
54454;SDS011;40364;52.270;10.546;2022-09-12T13:51:58;1.40;;;1.10;;
54454;SDS011;40364;52.270;10.546;2022-09-12T13:54:26;2.78;;;1.40;;
54454;SDS011;40364;52.270;10.546;2022-09-12T13:56:52;2.17;;;1.20;;
54454;SDS011;40364;52.270;10.546;2022-09-12T13:59:19;4.05;;;1.40;;
54454;SDS011;40364;52.270;10.546;2022-09-12T14:01:45;1.63;;;1.23;;
54454;SDS011;40364;52.270;10.546;2022-09-12T14:04:15;2.78;;;1.20;;
54454;SDS011;40364;52.270;10.546;2022-09-12T14:06:59;2.78;;;1.30;;
54454;SDS011;40364;52.270;10.546;2022-09-12T14:09:28;1.55;;;1.30;;
54454;SDS011;40364;52.270;10.546;2022-09-12T14:11:56;1.48;;;1.10;;
54454;SDS011;40364;52.270;10.546;2022-09-12T14:14:25;2.90;;;1.42;;
54454;SDS011;40364;52.270;10.546;2022-09-12T14:16:53;6.18;;;1.30;;
54454;SDS011;40364;52.270;10.546;2022-09-12T14:19:22;1.67;;;1.20;;
54454;SDS011;40364;52.270;10.546;2022-09-12T14:21:50;2.30;;;1.20;;
54454;SDS011;40364;52.270;10.546;2022-09-12T14:24:17;2.17;;;1.27;;
54454;SDS011;40364;52.270;10.546;2022-09-12T14:26:48;1.85;;;1.10;;
54454;SDS011;40364;52.270;10.546;2022-09-12T14:29:14;3.10;;;1.35;;
54454;SDS011;40364;52.270;10.546;2022-09-12T14:31:42;1.65;;;1.42;;
54454;SDS011;40364;52.270;10.546;2022-09-12T14:34:09;3.03;;;1.25;;
54454;SDS011;40364;52.270;10.546;2022-09-12T14:36:40;2.42;;;1.35;;
54454;SDS011;40364;52.270;10.546;2022-09-12T14:39:14;1.88;;;1.25;;
54454;SDS011;40364;52.270;10.546;2022-09-12T14:41:41;2.33;;;1.48;;
54454;SDS011;40364;52.270;10.546;2022-09-12T14:44:08;8.77;;;1.48;;
54454;SDS011;40364;52.270;10.546;2022-09-12T14:46:40;2.28;;;1.27;;
54454;SDS011;40364;52.270;10.546;2022-09-12T14:49:07;2.17;;;1.40;;
54454;SDS011;40364;52.270;10.546;2022-09-12T14:51:36;2.60;;;1.42;;
54454;SDS011;40364;52.270;10.546;2022-09-12T14:54:04;4.40;;;1.58;;
54454;SDS011;40364;52.270;10.546;2022-09-12T14:56:37;1.83;;;1.40;;
54454;SDS011;40364;52.270;10.546;2022-09-12T15:02:10;3.92;;;1.35;;
54454;SDS011;40364;52.270;10.546;2022-09-12T15:04:37;1.50;;;1.25;;
54454;SDS011;40364;52.270;10.546;2022-09-12T15:07:12;3.75;;;1.85;;